createdAt,value
2022-08-01T00:00:48.969Z,89.10
2022-08-01T00:03:56.590Z,89.77
2022-08-01T00:07:04.108Z,89.66
2022-08-01T00:10:18.489Z,89.54
2022-08-01T00:13:25.889Z,89.51
2022-08-01T00:16:33.658Z,89.99
2022-08-01T00:19:41.388Z,89.39
2022-08-01T00:22:48.428Z,89.75
2022-08-01T00:25:57.959Z,90.24
2022-08-01T00:29:06.621Z,90.18
2022-08-01T00:32:37.018Z,89.95
2022-08-01T00:35:44.769Z,90.15
2022-08-01T00:38:53.349Z,90.76
2022-08-01T00:42:01.917Z,90.57
2022-08-01T00:45:09.332Z,90.43
2022-08-01T00:48:15.791Z,90.50
2022-08-01T00:51:22.807Z,90.62
2022-08-01T00:54:30.194Z,90.36
2022-08-01T00:58:01.818Z,90.24
2022-08-01T01:01:05.008Z,90.58
2022-08-01T01:04:24.971Z,90.27
2022-08-01T01:07:36.682Z,91.09
2022-08-01T01:11:09.956Z,90.84
2022-08-01T01:14:24.024Z,90.84
2022-08-01T01:18:04.148Z,90.80
2022-08-01T01:21:22.529Z,90.67
2022-08-01T01:24:49.239Z,90.63
2022-08-01T01:28:25.166Z,90.45
2022-08-01T01:31:47.187Z,90.75
2022-08-01T01:34:54.867Z,90.91
2022-08-01T01:38:11.758Z,90.49
2022-08-01T01:41:19.552Z,90.53
2022-08-01T01:44:26.290Z,91.13
2022-08-01T01:47:33.528Z,91.70
2022-08-01T01:50:41.830Z,91.26
2022-08-01T01:53:49.211Z,91.40
2022-08-01T01:56:55.709Z,91.71
2022-08-01T02:00:02.272Z,91.87
2022-08-01T02:03:11.268Z,91.97
2022-08-01T02:06:18.553Z,91.79
2022-08-01T02:09:45.330Z,92.23
2022-08-01T02:12:51.636Z,91.74
2022-08-01T02:16:00.265Z,91.88
2022-08-01T02:19:06.335Z,91.99
2022-08-01T02:22:14.307Z,91.66
2022-08-01T02:25:21.086Z,92.07
2022-08-01T02:28:40.359Z,91.96
2022-08-01T02:31:48.788Z,91.97
2022-08-01T02:34:55.801Z,91.99
2022-08-01T02:38:04.011Z,92.08
2022-08-01T02:41:17.509Z,91.63
2022-08-01T02:44:30.930Z,91.83
2022-08-01T02:47:38.418Z,92.11
2022-08-01T02:50:47.758Z,92.03
2022-08-01T02:53:55.841Z,92.19
2022-08-01T02:57:02.748Z,91.91
2022-08-01T03:00:11.095Z,91.60
2022-08-01T03:03:19.394Z,92.11
2022-08-01T03:06:28.669Z,92.16
2022-08-01T03:09:40.016Z,92.84
2022-08-01T03:12:47.027Z,93.12
2022-08-01T03:15:55.597Z,93.50
2022-08-01T03:19:03.063Z,93.67
2022-08-01T03:22:10.982Z,93.55
2022-08-01T03:25:18.196Z,93.03
2022-08-01T03:28:24.571Z,93.44
2022-08-01T03:31:37.661Z,93.79
2022-08-01T03:34:44.269Z,94.25
2022-08-01T03:38:15.703Z,94.51
2022-08-01T03:41:23.324Z,94.81
2022-08-01T03:44:30.777Z,95.03
2022-08-01T03:47:43.455Z,95.01
2022-08-01T03:50:53.067Z,95.06
2022-08-01T03:54:00.729Z,94.98
2022-08-01T03:57:07.477Z,95.22
2022-08-01T04:00:15.229Z,94.39
2022-08-01T04:03:22.179Z,94.21
2022-08-01T04:06:28.317Z,95.65
2022-08-01T04:09:34.968Z,95.84
2022-08-01T04:12:41.094Z,95.85
2022-08-01T04:15:47.143Z,95.59
2022-08-01T04:18:53.086Z,95.54
2022-08-01T04:21:59.704Z,95.00
2022-08-01T04:25:09.924Z,93.99
2022-08-01T04:28:21.303Z,93.75
2022-08-01T04:31:27.839Z,93.49
2022-08-01T04:34:34.366Z,93.00
2022-08-01T04:37:41.864Z,93.19
2022-08-01T04:40:49.149Z,93.75
2022-08-01T04:43:56.641Z,94.66
2022-08-01T04:47:05.711Z,93.99
2022-08-01T04:50:12.989Z,93.83
2022-08-01T04:53:27.069Z,92.99
2022-08-01T04:56:36.791Z,92.52
2022-08-01T04:59:49.070Z,90.83
2022-08-01T05:02:56.989Z,90.19
2022-08-01T05:06:06.450Z,91.14
2022-08-01T05:09:13.798Z,91.55
2022-08-01T05:12:21.910Z,90.85
2022-08-01T05:15:32.473Z,89.79
2022-08-01T05:18:42.970Z,90.16
2022-08-01T05:22:00.182Z,89.46
2022-08-01T05:25:09.821Z,88.55
2022-08-01T05:28:24.010Z,88.79
2022-08-01T05:31:34.248Z,88.85
2022-08-01T05:34:42.032Z,88.20
2022-08-01T05:37:52.723Z,87.42
2022-08-01T05:41:00.753Z,86.73
2022-08-01T05:44:06.963Z,87.43
2022-08-01T05:47:12.488Z,87.09
2022-08-01T05:50:20.310Z,85.91
2022-08-01T05:53:30.729Z,86.21
2022-08-01T05:56:39.033Z,85.62
2022-08-01T05:59:48.053Z,85.80
2022-08-01T06:02:57.652Z,84.60
2022-08-01T06:06:05.335Z,84.04
2022-08-01T06:09:13.499Z,84.29
2022-08-01T06:12:21.477Z,84.30
2022-08-01T06:15:35.873Z,83.58
2022-08-01T06:18:47.373Z,83.81
2022-08-01T06:21:56.278Z,83.56
2022-08-01T06:25:05.873Z,82.32
2022-08-01T06:28:13.263Z,81.66
2022-08-01T06:31:39.315Z,80.73
2022-08-01T06:34:48.752Z,79.86
2022-08-01T06:37:56.675Z,78.55
2022-08-01T06:41:05.059Z,76.88
2022-08-01T06:44:13.109Z,76.58
2022-08-01T06:47:20.311Z,76.28
2022-08-01T06:50:30.996Z,75.79
2022-08-01T06:53:40.333Z,75.76
2022-08-01T06:56:48.672Z,76.15
2022-08-01T06:59:56.654Z,76.05
2022-08-01T07:03:06.031Z,76.25
2022-08-01T07:06:15.659Z,75.89
2022-08-01T07:09:23.829Z,74.94
2022-08-01T07:12:30.068Z,72.26
2022-08-01T07:15:41.453Z,69.24
2022-08-01T07:18:48.757Z,70.14
2022-08-01T07:21:54.947Z,69.82
2022-08-01T07:25:01.404Z,68.66
2022-08-01T07:28:08.013Z,67.56
2022-08-01T07:31:16.531Z,68.70
2022-08-01T07:34:23.959Z,69.26
2022-08-01T07:37:48.257Z,67.89
2022-08-01T07:41:00.752Z,65.47
2022-08-01T07:44:08.292Z,65.33
2022-08-01T07:47:15.525Z,62.28
2022-08-01T07:50:27.929Z,63.61
2022-08-01T07:53:37.637Z,64.61
2022-08-01T07:56:45.034Z,65.18
2022-08-01T08:00:11.614Z,64.83
2022-08-01T08:03:17.254Z,65.24
2022-08-01T08:06:24.011Z,63.28
2022-08-01T08:09:45.651Z,64.01
2022-08-01T08:13:03.981Z,64.41
2022-08-01T08:16:12.569Z,64.32
2022-08-01T08:19:19.966Z,65.30
2022-08-01T08:22:47.038Z,65.57
2022-08-01T08:25:53.762Z,64.50
2022-08-01T08:28:59.974Z,65.63
2022-08-01T08:32:11.984Z,65.58
2022-08-01T08:35:47.941Z,61.84
2022-08-01T08:39:02.322Z,61.47
2022-08-01T08:42:15.539Z,61.31
2022-08-01T08:45:45.056Z,59.76
2022-08-01T08:48:51.987Z,57.53
2022-08-01T08:52:06.623Z,57.03
2022-08-01T08:55:19.800Z,56.53
2022-08-01T08:58:40.619Z,53.71
2022-08-01T09:01:47.188Z,54.78
2022-08-01T09:04:53.150Z,52.16
2022-08-01T09:08:01.770Z,54.02
2022-08-01T09:11:10.051Z,52.21
2022-08-01T09:14:28.466Z,52.04
2022-08-01T09:17:43.791Z,51.12
2022-08-01T09:20:51.180Z,50.86
2022-08-01T09:23:59.050Z,50.26
2022-08-01T09:27:29.729Z,53.05
2022-08-01T09:31:02.852Z,50.94
2022-08-01T09:34:12.492Z,51.91
2022-08-01T09:37:24.119Z,51.66
2022-08-01T09:40:52.294Z,49.42
2022-08-01T09:44:00.825Z,46.25
2022-08-01T09:47:08.123Z,48.81
2022-08-01T09:50:22.304Z,49.68
2022-08-01T09:53:30.799Z,46.78
2022-08-01T09:56:44.465Z,48.05
2022-08-01T10:00:01.601Z,46.45
2022-08-01T10:03:39.825Z,45.10
2022-08-01T10:12:54.299Z,38.80
2022-08-01T10:16:02.643Z,38.80
2022-08-01T10:19:11.378Z,42.40
2022-08-01T10:22:28.563Z,42.14
2022-08-01T10:25:44.110Z,41.67
2022-08-01T10:28:58.791Z,40.94
2022-08-01T10:32:13.435Z,41.40
2022-08-01T10:35:46.536Z,40.25
2022-08-01T10:38:50.398Z,42.54
2022-08-01T10:41:58.529Z,43.81
2022-08-01T10:45:06.753Z,42.23
2022-08-01T10:48:36.556Z,41.83
2022-08-01T10:51:51.543Z,39.54
2022-08-01T10:55:06.871Z,41.45
2022-08-01T10:58:16.492Z,38.57
2022-08-01T11:01:33.997Z,41.02
2022-08-01T11:04:55.292Z,39.87
2022-08-01T11:08:14.090Z,41.29
2022-08-01T11:11:22.574Z,43.29
2022-08-01T11:15:04.231Z,42.61
2022-08-01T11:18:43.374Z,45.27
2022-08-01T11:22:06.951Z,41.43
2022-08-01T11:25:20.536Z,40.42
2022-08-01T11:29:20.693Z,36.17
2022-08-01T11:32:42.437Z,39.00
2022-08-01T11:36:31.971Z,38.04
2022-08-01T11:40:20.013Z,39.15
2022-08-01T11:43:32.954Z,39.75
2022-08-01T11:47:15.017Z,40.44
2022-08-01T11:50:36.894Z,41.74
2022-08-01T11:53:53.651Z,40.89
2022-08-01T11:57:02.966Z,34.40
2022-08-01T12:00:18.580Z,35.44
2022-08-01T12:03:40.171Z,35.63
2022-08-01T12:06:57.416Z,35.68
2022-08-01T12:10:18.411Z,33.95
2022-08-01T12:13:25.791Z,34.67
2022-08-01T12:16:33.261Z,36.32
2022-08-01T12:19:40.895Z,33.34
2022-08-01T12:22:47.600Z,33.33
2022-08-01T12:25:54.796Z,33.33
2022-08-01T12:29:01.048Z,34.07
2022-08-01T12:32:07.216Z,34.27
2022-08-01T12:35:35.053Z,33.31
2022-08-01T12:38:43.036Z,32.78
2022-08-01T12:41:50.035Z,33.07
2022-08-01T12:44:58.040Z,35.40
2022-08-01T12:48:20.771Z,35.24
2022-08-01T12:51:28.089Z,35.76
2022-08-01T12:55:09.773Z,35.04
2022-08-01T12:58:19.551Z,37.18
2022-08-01T13:01:28.661Z,37.07
2022-08-01T13:04:55.932Z,38.75
2022-08-01T13:08:29.980Z,34.48
2022-08-01T13:11:37.016Z,33.98
2022-08-01T13:14:45.693Z,36.55
2022-08-01T13:18:02.769Z,36.61
2022-08-01T13:21:34.436Z,37.44
2022-08-01T13:25:23.041Z,34.28
2022-08-01T13:28:33.171Z,33.79
2022-08-01T13:31:41.111Z,34.75
2022-08-01T13:34:47.492Z,33.88
2022-08-01T13:37:54.403Z,32.76
2022-08-01T13:41:01.191Z,29.91
2022-08-01T13:44:07.207Z,31.63
2022-08-01T13:47:16.963Z,31.95
2022-08-01T13:50:27.571Z,32.20
2022-08-01T13:53:34.938Z,30.78
2022-08-01T13:56:47.693Z,30.55
2022-08-01T13:59:58.812Z,30.97
2022-08-01T14:03:08.424Z,31.16
2022-08-01T14:06:15.933Z,31.36
2022-08-01T14:09:24.920Z,29.91
2022-08-01T14:12:37.860Z,29.91
2022-08-01T14:15:43.784Z,30.31
2022-08-01T14:18:50.258Z,29.87
2022-08-01T14:21:56.228Z,30.09
2022-08-01T14:25:03.623Z,28.56
2022-08-01T14:28:16.372Z,30.12
2022-08-01T14:31:34.075Z,29.36
2022-08-01T14:34:47.752Z,29.12
2022-08-01T14:37:55.077Z,29.88
2022-08-01T14:41:05.760Z,27.62
2022-08-01T14:44:17.441Z,27.44
2022-08-01T14:47:24.350Z,28.27
2022-08-01T14:50:41.573Z,29.39
2022-08-01T14:53:50.792Z,29.23
2022-08-01T14:57:05.364Z,28.81
2022-08-01T15:00:14.973Z,28.31
2022-08-01T15:03:20.905Z,29.17
2022-08-01T15:06:27.954Z,30.81
2022-08-01T15:09:34.066Z,32.75
2022-08-01T15:12:49.984Z,34.03
2022-08-01T15:16:01.234Z,34.53
2022-08-01T15:19:08.086Z,35.48
2022-08-01T15:22:16.154Z,36.20
2022-08-01T15:25:24.511Z,36.26
2022-08-01T15:28:39.795Z,36.64
2022-08-01T15:31:46.483Z,36.79
2022-08-01T15:34:52.932Z,37.62
2022-08-01T15:37:59.933Z,37.92
2022-08-01T15:41:06.785Z,38.82
2022-08-01T15:44:12.457Z,39.98
2022-08-01T15:47:19.812Z,40.09
2022-08-01T15:50:27.655Z,40.90
2022-08-01T15:53:33.698Z,41.67
2022-08-01T15:56:41.595Z,42.29
2022-08-01T15:59:48.157Z,42.43
2022-08-01T16:02:57.508Z,43.00
2022-08-01T16:06:04.567Z,43.67
2022-08-01T16:09:18.381Z,44.52
2022-08-01T16:12:25.436Z,44.71
2022-08-01T16:15:37.031Z,45.47
2022-08-01T16:18:43.824Z,46.82
2022-08-01T16:21:51.356Z,46.64
2022-08-01T16:25:05.863Z,47.27
2022-08-01T16:28:15.753Z,46.66
2022-08-01T16:31:43.727Z,47.49
2022-08-01T16:34:51.064Z,47.45
2022-08-01T16:37:59.434Z,47.16
2022-08-01T16:41:19.296Z,46.38
2022-08-01T16:44:34.356Z,45.87
2022-08-01T16:47:46.960Z,45.74
2022-08-01T16:50:53.981Z,45.36
2022-08-01T16:54:01.896Z,45.71
2022-08-01T16:57:09.241Z,45.45
2022-08-01T17:00:25.953Z,45.87
2022-08-01T17:03:51.403Z,45.60
2022-08-01T17:07:01.653Z,45.66
2022-08-01T17:10:08.100Z,45.90
2022-08-01T17:13:35.511Z,45.55
2022-08-01T17:16:43.572Z,45.80
2022-08-01T17:19:52.113Z,46.02
2022-08-01T17:22:59.434Z,46.68
2022-08-01T17:26:08.373Z,47.08
2022-08-01T17:29:19.642Z,47.63
2022-08-01T17:32:27.871Z,48.02
2022-08-01T17:35:37.912Z,48.62
2022-08-01T17:38:45.015Z,48.90
2022-08-01T17:41:52.475Z,49.19
2022-08-01T17:45:00.990Z,49.57
2022-08-01T17:48:19.675Z,49.49
2022-08-01T17:51:28.629Z,49.36
2022-08-01T17:54:36.054Z,49.53
2022-08-01T17:57:43.051Z,49.48
2022-08-01T18:00:49.734Z,50.72
2022-08-01T18:03:57.904Z,51.62
2022-08-01T18:07:06.033Z,52.25
2022-08-01T18:10:16.893Z,52.47
2022-08-01T18:13:25.093Z,52.45
2022-08-01T18:16:35.915Z,52.75
2022-08-01T18:19:47.432Z,53.48
2022-08-01T18:22:55.099Z,54.08
2022-08-01T18:26:04.394Z,54.82
2022-08-01T18:29:13.889Z,55.84
2022-08-01T18:32:33.789Z,56.94
2022-08-01T18:35:52.526Z,57.00
2022-08-01T18:39:10.456Z,57.59
2022-08-01T18:42:21.473Z,57.88
2022-08-01T18:45:30.872Z,59.02
2022-08-01T18:48:40.673Z,59.73
2022-08-01T18:51:51.132Z,60.50
2022-08-01T18:55:06.596Z,61.17
2022-08-01T18:58:16.152Z,61.82
2022-08-01T19:01:24.964Z,62.46
2022-08-01T19:04:35.333Z,62.97
2022-08-01T19:08:05.878Z,63.71
2022-08-01T19:11:17.412Z,64.50
2022-08-01T19:14:27.930Z,66.01
2022-08-01T19:17:35.913Z,66.05
2022-08-01T19:20:45.210Z,66.27
2022-08-01T19:24:12.191Z,67.23
2022-08-01T19:27:27.293Z,67.71
2022-08-01T19:30:42.448Z,68.21
2022-08-01T19:33:51.251Z,68.73
2022-08-01T19:37:00.553Z,69.07
2022-08-01T19:40:10.509Z,69.70
2022-08-01T19:43:20.131Z,69.97
2022-08-01T19:46:28.049Z,70.74
2022-08-01T19:49:36.645Z,71.12
2022-08-01T19:52:51.591Z,71.51
2022-08-01T19:56:02.871Z,72.02
2022-08-01T19:59:12.788Z,72.58
2022-08-01T20:02:25.971Z,73.30
2022-08-01T20:05:33.933Z,73.52
2022-08-01T20:08:42.292Z,73.93
2022-08-01T20:11:55.089Z,74.30
2022-08-01T20:15:05.272Z,74.98
2022-08-01T20:18:12.390Z,75.01
2022-08-01T20:21:20.754Z,75.51
2022-08-01T20:24:30.230Z,75.71
2022-08-01T20:27:41.870Z,75.85
2022-08-01T20:30:50.150Z,76.12
2022-08-01T20:34:00.752Z,76.76
2022-08-01T20:37:14.088Z,77.46
2022-08-01T20:40:26.640Z,78.22
2022-08-01T20:43:35.034Z,78.21
2022-08-01T20:46:43.950Z,78.33
2022-08-01T20:49:51.972Z,78.64
2022-08-01T20:52:59.930Z,78.80
2022-08-01T20:56:19.970Z,79.32
2022-08-01T21:00:18.132Z,79.40
2022-08-01T21:03:27.870Z,79.50
2022-08-01T21:06:41.275Z,79.57
2022-08-01T21:09:52.792Z,80.23
2022-08-01T21:13:08.892Z,79.87
2022-08-01T21:16:23.912Z,80.49
2022-08-01T21:19:36.050Z,80.33
2022-08-01T21:23:06.730Z,81.60
2022-08-01T21:26:16.981Z,82.82
2022-08-01T21:29:25.373Z,82.00
2022-08-01T21:32:34.071Z,81.73
2022-08-01T21:35:41.739Z,82.17
2022-08-01T21:38:51.925Z,82.13
2022-08-01T21:42:04.009Z,82.68
2022-08-01T21:45:17.132Z,83.27
2022-08-01T21:48:26.902Z,83.58
2022-08-01T21:52:00.853Z,83.78
2022-08-01T21:55:21.433Z,83.57
2022-08-01T21:58:41.189Z,84.39
2022-08-01T22:02:16.769Z,84.67
2022-08-01T22:05:49.744Z,84.68
2022-08-01T22:08:59.391Z,84.34
2022-08-01T22:12:10.162Z,84.19
2022-08-01T22:15:23.100Z,85.70
2022-08-01T22:18:30.310Z,85.56
2022-08-01T22:21:42.171Z,85.52
2022-08-01T22:24:50.950Z,85.86
2022-08-01T22:28:08.799Z,85.55
2022-08-01T22:31:18.792Z,85.43
2022-08-01T22:34:30.183Z,85.69
2022-08-01T22:37:56.921Z,87.28
2022-08-01T22:41:07.590Z,88.06
2022-08-01T22:44:16.029Z,89.15
2022-08-01T22:47:54.391Z,88.99
2022-08-01T22:51:17.751Z,87.86
2022-08-01T22:54:40.314Z,86.92
2022-08-01T22:58:00.810Z,86.99
2022-08-01T23:01:21.329Z,86.72
2022-08-01T23:04:47.478Z,86.97
2022-08-01T23:08:03.611Z,87.75
2022-08-01T23:11:16.950Z,87.07
2022-08-01T23:14:26.191Z,86.73
2022-08-01T23:17:33.932Z,86.41
2022-08-01T23:20:42.112Z,86.34
2022-08-01T23:23:49.931Z,86.56
2022-08-01T23:26:57.812Z,87.01
2022-08-01T23:30:06.751Z,88.58
2022-08-01T23:33:15.265Z,88.08
2022-08-01T23:36:22.731Z,87.91
2022-08-01T23:39:31.711Z,87.86
2022-08-01T23:42:38.918Z,87.76
2022-08-01T23:46:04.050Z,87.58
2022-08-01T23:49:13.951Z,88.32
2022-08-01T23:52:22.211Z,88.00
2022-08-01T23:55:37.723Z,88.36
2022-08-01T23:58:47.392Z,89.62
